Eielson Air Force Base Fairbanks US
ICAO: PAEI
IATA:
Category: Medium
Scheduled Services:

Elevation: 547 ft
TransAlt. 18000 ft.

Airport Communications:
FAIRBANKS APP:125.35
ASOS:118.525
ATIS:27.35
CLNC DEL:34.37
FAIRBANKS DEP:126.5
GND:121.8
RANGE CON:125.3
SOURDOUGH:139.6
IGLOO:25.95
PMSV METRO:34.66
CHENA CON:23.81
PTD:37.22
TWR:127.2

PAEI Zoom In..

If you have problems with the map follow the link
https://www.worldairports.se/pages/airport.php?
ICAO=PAEI

Runways:

(A) RW 14 length 14530 ft width 150 ft
ILS 110.50 / hdg 136

(B) RW 32 length 14530 ft width 150 ft
ILS 109.90 / hdg 316

Location; PAEI
Day. 26 / Time. 22.56 Zulu
* Altimeter: 29.70
* Temperature: -29° c. 20.2°f.
* Wind from: 000° Speed 00 kn.
Dewpoint: -33° c.
Visibility: 5 Statute Miles.
Clouds: Scattered 500 ft.
Clouds: Broken 5000 ft.
Conditions: Mist.

PAEI 262256Z 00000KT 5SM BR SCT005 BKN050 M29/M33 A2970 RMK AO2A SNB04E45 SLP086 P0000 T12911334 $


Wind - Calm.

 
 
jpsmedia worldairports.se 2020   terms of use